sensor_id;sensor_type;location;lat;lon;timestamp;P1;durP1;ratioP1;P2;durP2;ratioP2
62102;SDS011;48077;48.104;11.702;2023-03-31T00:01:03;6.53;;;3.28;;
62102;SDS011;48077;48.104;11.702;2023-03-31T00:03:28;3.53;;;2.55;;
62102;SDS011;48077;48.104;11.702;2023-03-31T00:05:56;5.30;;;3.22;;
62102;SDS011;48077;48.104;11.702;2023-03-31T00:08:20;5.18;;;2.83;;
62102;SDS011;48077;48.104;11.702;2023-03-31T00:10:45;9.35;;;3.25;;
62102;SDS011;48077;48.104;11.702;2023-03-31T00:13:09;6.95;;;3.15;;
62102;SDS011;48077;48.104;11.702;2023-03-31T00:15:34;4.60;;;2.65;;
62102;SDS011;48077;48.104;11.702;2023-03-31T00:17:58;5.35;;;2.95;;
62102;SDS011;48077;48.104;11.702;2023-03-31T00:20:22;5.20;;;2.78;;
62102;SDS011;48077;48.104;11.702;2023-03-31T00:22:45;5.88;;;3.03;;
62102;SDS011;48077;48.104;11.702;2023-03-31T00:25:09;5.97;;;2.67;;
62102;SDS011;48077;48.104;11.702;2023-03-31T00:27:33;6.72;;;3.58;;
62102;SDS011;48077;48.104;11.702;2023-03-31T00:29:56;5.30;;;3.17;;
62102;SDS011;48077;48.104;11.702;2023-03-31T00:32:19;8.05;;;3.75;;
62102;SDS011;48077;48.104;11.702;2023-03-31T00:34:44;5.95;;;3.42;;
62102;SDS011;48077;48.104;11.702;2023-03-31T00:37:10;6.57;;;2.90;;
62102;SDS011;48077;48.104;11.702;2023-03-31T00:39:37;5.20;;;2.85;;
62102;SDS011;48077;48.104;11.702;2023-03-31T00:42:02;4.57;;;2.80;;
62102;SDS011;48077;48.104;11.702;2023-03-31T00:44:27;6.82;;;3.15;;
62102;SDS011;48077;48.104;11.702;2023-03-31T00:46:56;6.55;;;3.92;;
62102;SDS011;48077;48.104;11.702;2023-03-31T00:49:38;4.13;;;2.90;;
62102;SDS011;48077;48.104;11.702;2023-03-31T00:52:14;5.60;;;3.38;;
62102;SDS011;48077;48.104;11.702;2023-03-31T00:54:41;7.30;;;3.13;;
62102;SDS011;48077;48.104;11.702;2023-03-31T00:57:08;6.35;;;3.10;;
62102;SDS011;48077;48.104;11.702;2023-03-31T00:59:37;5.60;;;3.13;;
62102;SDS011;48077;48.104;11.702;2023-03-31T01:02:04;4.55;;;2.75;;
62102;SDS011;48077;48.104;11.702;2023-03-31T01:04:31;5.68;;;3.15;;
62102;SDS011;48077;48.104;11.702;2023-03-31T01:07:01;5.63;;;3.60;;
62102;SDS011;48077;48.104;11.702;2023-03-31T01:09:31;4.25;;;3.45;;
62102;SDS011;48077;48.104;11.702;2023-03-31T01:11:57;7.20;;;3.33;;
62102;SDS011;48077;48.104;11.702;2023-03-31T01:14:20;5.35;;;3.60;;
62102;SDS011;48077;48.104;11.702;2023-03-31T01:16:45;6.97;;;3.60;;
62102;SDS011;48077;48.104;11.702;2023-03-31T01:19:11;5.60;;;3.28;;
62102;SDS011;48077;48.104;11.702;2023-03-31T01:21:54;8.63;;;3.92;;
62102;SDS011;48077;48.104;11.702;2023-03-31T01:24:26;6.20;;;3.65;;
62102;SDS011;48077;48.104;11.702;2023-03-31T01:27:22;4.97;;;3.63;;
62102;SDS011;48077;48.104;11.702;2023-03-31T01:38:43;3.80;;;3.05;;
62102;SDS011;48077;48.104;11.702;2023-03-31T01:52:03;5.43;;;4.18;;
62102;SDS011;48077;48.104;11.702;2023-03-31T01:57:10;6.95;;;3.70;;
62102;SDS011;48077;48.104;11.702;2023-03-31T02:02:15;6.20;;;3.75;;
62102;SDS011;48077;48.104;11.702;2023-03-31T02:04:45;6.07;;;3.40;;
62102;SDS011;48077;48.104;11.702;2023-03-31T02:07:20;6.93;;;3.78;;
62102;SDS011;48077;48.104;11.702;2023-03-31T02:09:50;5.80;;;3.30;;
62102;SDS011;48077;48.104;11.702;2023-03-31T02:12:18;5.93;;;3.75;;
62102;SDS011;48077;48.104;11.702;2023-03-31T02:14:49;6.30;;;4.25;;
62102;SDS011;48077;48.104;11.702;2023-03-31T02:17:16;7.30;;;3.80;;
62102;SDS011;48077;48.104;11.702;2023-03-31T02:19:44;6.55;;;3.53;;
62102;SDS011;48077;48.104;11.702;2023-03-31T02:22:13;8.85;;;4.47;;
62102;SDS011;48077;48.104;11.702;2023-03-31T02:24:39;8.75;;;4.05;;
62102;SDS011;48077;48.104;11.702;2023-03-31T02:29:50;6.60;;;3.80;;
62102;SDS011;48077;48.104;11.702;2023-03-31T02:34:43;4.97;;;3.33;;
62102;SDS011;48077;48.104;11.702;2023-03-31T02:37:06;7.35;;;4.13;;
62102;SDS011;48077;48.104;11.702;2023-03-31T02:39:32;5.68;;;3.58;;
62102;SDS011;48077;48.104;11.702;2023-03-31T02:41:58;4.55;;;3.22;;
62102;SDS011;48077;48.104;11.702;2023-03-31T02:44:24;4.03;;;3.40;;
62102;SDS011;48077;48.104;11.702;2023-03-31T02:46:51;6.00;;;3.80;;
62102;SDS011;48077;48.104;11.702;2023-03-31T02:49:14;6.95;;;4.03;;
62102;SDS011;48077;48.104;11.702;2023-03-31T03:07:45;6.70;;;4.13;;
62102;SDS011;48077;48.104;11.702;2023-03-31T03:10:39;6.65;;;3.97;;
62102;SDS011;48077;48.104;11.702;2023-03-31T03:16:17;6.72;;;4.38;;
62102;SDS011;48077;48.104;11.702;2023-03-31T03:18:59;6.18;;;3.70;;
62102;SDS011;48077;48.104;11.702;2023-03-31T03:21:24;6.00;;;4.13;;
62102;SDS011;48077;48.104;11.702;2023-03-31T03:23:48;5.18;;;3.72;;
62102;SDS011;48077;48.104;11.702;2023-03-31T03:26:13;7.97;;;4.65;;
62102;SDS011;48077;48.104;11.702;2023-03-31T03:28:37;6.38;;;4.05;;
62102;SDS011;48077;48.104;11.702;2023-03-31T03:31:00;6.25;;;4.20;;
62102;SDS011;48077;48.104;11.702;2023-03-31T03:33:23;6.97;;;3.83;;
62102;SDS011;48077;48.104;11.702;2023-03-31T03:35:48;6.97;;;4.30;;
62102;SDS011;48077;48.104;11.702;2023-03-31T03:38:11;10.77;;;4.40;;
62102;SDS011;48077;48.104;11.702;2023-03-31T03:40:35;5.60;;;3.70;;
62102;SDS011;48077;48.104;11.702;2023-03-31T03:42:58;7.63;;;4.57;;
62102;SDS011;48077;48.104;11.702;2023-03-31T03:45:22;6.20;;;4.22;;
62102;SDS011;48077;48.104;11.702;2023-03-31T03:47:45;6.80;;;4.68;;
62102;SDS011;48077;48.104;11.702;2023-03-31T03:50:09;7.13;;;4.50;;
62102;SDS011;48077;48.104;11.702;2023-03-31T03:52:32;7.25;;;4.32;;
62102;SDS011;48077;48.104;11.702;2023-03-31T03:54:56;5.72;;;3.97;;
62102;SDS011;48077;48.104;11.702;2023-03-31T03:57:24;13.50;;;4.82;;
62102;SDS011;48077;48.104;11.702;2023-03-31T03:59:48;10.38;;;4.70;;
62102;SDS011;48077;48.104;11.702;2023-03-31T04:02:11;8.00;;;4.80;;
62102;SDS011;48077;48.104;11.702;2023-03-31T04:04:34;7.57;;;4.18;;
62102;SDS011;48077;48.104;11.702;2023-03-31T04:06:58;8.30;;;4.30;;
62102;SDS011;48077;48.104;11.702;2023-03-31T04:09:21;6.50;;;4.38;;
62102;SDS011;48077;48.104;11.702;2023-03-31T04:11:44;7.72;;;4.40;;
62102;SDS011;48077;48.104;11.702;2023-03-31T04:14:08;8.48;;;4.00;;
62102;SDS011;48077;48.104;11.702;2023-03-31T04:16:31;5.40;;;3.58;;
62102;SDS011;48077;48.104;11.702;2023-03-31T04:18:56;5.60;;;3.47;;
62102;SDS011;48077;48.104;11.702;2023-03-31T04:21:21;6.10;;;3.92;;
62102;SDS011;48077;48.104;11.702;2023-03-31T04:23:45;6.63;;;4.15;;
62102;SDS011;48077;48.104;11.702;2023-03-31T04:26:08;9.32;;;4.80;;
62102;SDS011;48077;48.104;11.702;2023-03-31T04:28:32;6.82;;;4.05;;
62102;SDS011;48077;48.104;11.702;2023-03-31T04:30:56;9.52;;;4.72;;
62102;SDS011;48077;48.104;11.702;2023-03-31T04:33:20;10.68;;;4.57;;
62102;SDS011;48077;48.104;11.702;2023-03-31T04:35:45;7.20;;;3.95;;
62102;SDS011;48077;48.104;11.702;2023-03-31T04:40:40;7.22;;;4.15;;
62102;SDS011;48077;48.104;11.702;2023-03-31T04:43:04;6.10;;;3.90;;
62102;SDS011;48077;48.104;11.702;2023-03-31T04:45:29;9.30;;;4.43;;
62102;SDS011;48077;48.104;11.702;2023-03-31T04:47:52;5.15;;;3.63;;
62102;SDS011;48077;48.104;11.702;2023-03-31T04:50:16;7.07;;;4.18;;
62102;SDS011;48077;48.104;11.702;2023-03-31T04:52:41;6.25;;;3.67;;
62102;SDS011;48077;48.104;11.702;2023-03-31T04:55:05;6.05;;;3.90;;
62102;SDS011;48077;48.104;11.702;2023-03-31T04:57:29;8.90;;;4.32;;
62102;SDS011;48077;48.104;11.702;2023-03-31T04:59:52;7.85;;;4.10;;
62102;SDS011;48077;48.104;11.702;2023-03-31T05:02:16;9.48;;;4.85;;
62102;SDS011;48077;48.104;11.702;2023-03-31T05:04:45;6.85;;;3.90;;
62102;SDS011;48077;48.104;11.702;2023-03-31T05:07:08;6.50;;;4.45;;
62102;SDS011;48077;48.104;11.702;2023-03-31T05:09:32;6.97;;;3.92;;
62102;SDS011;48077;48.104;11.702;2023-03-31T05:11:56;6.03;;;4.13;;
62102;SDS011;48077;48.104;11.702;2023-03-31T05:14:19;7.63;;;4.15;;
62102;SDS011;48077;48.104;11.702;2023-03-31T05:16:43;9.98;;;5.07;;
62102;SDS011;48077;48.104;11.702;2023-03-31T05:19:08;7.75;;;5.40;;
62102;SDS011;48077;48.104;11.702;2023-03-31T05:21:32;8.13;;;5.38;;
62102;SDS011;48077;48.104;11.702;2023-03-31T05:23:55;7.60;;;5.70;;
62102;SDS011;48077;48.104;11.702;2023-03-31T05:26:19;8.07;;;4.78;;
62102;SDS011;48077;48.104;11.702;2023-03-31T05:28:44;10.52;;;4.65;;
62102;SDS011;48077;48.104;11.702;2023-03-31T05:31:09;8.82;;;4.90;;
62102;SDS011;48077;48.104;11.702;2023-03-31T05:33:34;9.82;;;5.40;;
62102;SDS011;48077;48.104;11.702;2023-03-31T05:36:02;5.05;;;4.40;;
62102;SDS011;48077;48.104;11.702;2023-03-31T05:38:26;6.85;;;4.68;;
62102;SDS011;48077;48.104;11.702;2023-03-31T05:40:54;7.53;;;4.60;;
62102;SDS011;48077;48.104;11.702;2023-03-31T05:43:17;7.43;;;4.72;;
62102;SDS011;48077;48.104;11.702;2023-03-31T05:45:41;6.32;;;4.35;;
62102;SDS011;48077;48.104;11.702;2023-03-31T05:48:04;6.70;;;4.70;;
62102;SDS011;48077;48.104;11.702;2023-03-31T05:50:28;10.27;;;5.00;;
62102;SDS011;48077;48.104;11.702;2023-03-31T05:52:51;11.00;;;5.38;;
62102;SDS011;48077;48.104;11.702;2023-03-31T05:55:14;9.18;;;5.47;;
62102;SDS011;48077;48.104;11.702;2023-03-31T05:57:38;10.40;;;5.18;;
62102;SDS011;48077;48.104;11.702;2023-03-31T06:00:03;9.82;;;4.90;;
62102;SDS011;48077;48.104;11.702;2023-03-31T06:02:28;10.15;;;4.88;;
62102;SDS011;48077;48.104;11.702;2023-03-31T06:04:51;8.68;;;4.88;;
62102;SDS011;48077;48.104;11.702;2023-03-31T06:07:14;8.45;;;4.93;;
62102;SDS011;48077;48.104;11.702;2023-03-31T06:09:39;9.57;;;4.70;;
62102;SDS011;48077;48.104;11.702;2023-03-31T06:12:03;8.80;;;4.78;;
62102;SDS011;48077;48.104;11.702;2023-03-31T06:14:26;8.98;;;4.60;;
62102;SDS011;48077;48.104;11.702;2023-03-31T06:16:50;8.50;;;4.53;;
62102;SDS011;48077;48.104;11.702;2023-03-31T06:19:13;8.38;;;4.97;;
62102;SDS011;48077;48.104;11.702;2023-03-31T06:21:37;11.82;;;5.05;;
62102;SDS011;48077;48.104;11.702;2023-03-31T06:24:01;15.95;;;5.55;;
62102;SDS011;48077;48.104;11.702;2023-03-31T06:26:24;9.32;;;4.63;;
62102;SDS011;48077;48.104;11.702;2023-03-31T06:28:49;14.65;;;5.28;;
62102;SDS011;48077;48.104;11.702;2023-03-31T06:31:15;10.40;;;4.97;;
62102;SDS011;48077;48.104;11.702;2023-03-31T06:33:47;9.35;;;4.85;;
62102;SDS011;48077;48.104;11.702;2023-03-31T06:36:11;12.15;;;6.43;;
62102;SDS011;48077;48.104;11.702;2023-03-31T06:38:36;7.50;;;4.45;;
62102;SDS011;48077;48.104;11.702;2023-03-31T06:41:06;9.85;;;5.07;;
62102;SDS011;48077;48.104;11.702;2023-03-31T06:43:33;10.95;;;4.53;;
62102;SDS011;48077;48.104;11.702;2023-03-31T06:45:57;11.23;;;5.32;;
62102;SDS011;48077;48.104;11.702;2023-03-31T06:48:24;7.95;;;4.35;;
62102;SDS011;48077;48.104;11.702;2023-03-31T06:50:48;8.70;;;4.28;;
62102;SDS011;48077;48.104;11.702;2023-03-31T06:53:13;7.90;;;4.18;;
62102;SDS011;48077;48.104;11.702;2023-03-31T06:55:37;9.35;;;4.03;;
62102;SDS011;48077;48.104;11.702;2023-03-31T06:58:00;10.45;;;4.40;;
62102;SDS011;48077;48.104;11.702;2023-03-31T07:00:24;7.95;;;4.63;;
62102;SDS011;48077;48.104;11.702;2023-03-31T07:02:48;8.32;;;4.40;;
62102;SDS011;48077;48.104;11.702;2023-03-31T07:05:12;11.95;;;5.47;;
62102;SDS011;48077;48.104;11.702;2023-03-31T07:07:35;7.75;;;4.50;;
62102;SDS011;48077;48.104;11.702;2023-03-31T07:09:59;7.70;;;4.43;;
62102;SDS011;48077;48.104;11.702;2023-03-31T07:12:22;7.07;;;4.50;;
62102;SDS011;48077;48.104;11.702;2023-03-31T07:14:46;9.93;;;4.68;;
62102;SDS011;48077;48.104;11.702;2023-03-31T07:17:09;9.20;;;4.95;;
62102;SDS011;48077;48.104;11.702;2023-03-31T07:19:36;13.80;;;5.50;;
62102;SDS011;48077;48.104;11.702;2023-03-31T07:22:04;8.95;;;4.63;;
62102;SDS011;48077;48.104;11.702;2023-03-31T07:24:28;11.32;;;5.72;;
62102;SDS011;48077;48.104;11.702;2023-03-31T07:26:52;11.35;;;5.43;;
62102;SDS011;48077;48.104;11.702;2023-03-31T07:29:15;8.18;;;5.00;;
62102;SDS011;48077;48.104;11.702;2023-03-31T07:31:41;8.65;;;5.05;;
62102;SDS011;48077;48.104;11.702;2023-03-31T07:34:05;12.25;;;6.22;;
62102;SDS011;48077;48.104;11.702;2023-03-31T07:36:28;9.23;;;5.57;;
62102;SDS011;48077;48.104;11.702;2023-03-31T07:38:55;9.45;;;4.65;;
62102;SDS011;48077;48.104;11.702;2023-03-31T07:41:19;8.25;;;5.03;;
62102;SDS011;48077;48.104;11.702;2023-03-31T07:43:43;8.50;;;4.57;;
62102;SDS011;48077;48.104;11.702;2023-03-31T07:46:12;8.57;;;5.10;;
62102;SDS011;48077;48.104;11.702;2023-03-31T07:48:37;11.80;;;4.95;;
62102;SDS011;48077;48.104;11.702;2023-03-31T07:51:00;7.47;;;4.40;;
62102;SDS011;48077;48.104;11.702;2023-03-31T07:53:24;7.82;;;4.68;;
62102;SDS011;48077;48.104;11.702;2023-03-31T07:55:49;7.00;;;4.18;;
62102;SDS011;48077;48.104;11.702;2023-03-31T07:58:13;9.70;;;4.50;;
62102;SDS011;48077;48.104;11.702;2023-03-31T08:00:36;9.00;;;4.85;;
62102;SDS011;48077;48.104;11.702;2023-03-31T08:02:59;8.65;;;4.03;;
62102;SDS011;48077;48.104;11.702;2023-03-31T08:05:23;8.38;;;4.18;;
62102;SDS011;48077;48.104;11.702;2023-03-31T08:07:47;8.43;;;4.47;;
62102;SDS011;48077;48.104;11.702;2023-03-31T08:10:13;8.38;;;4.80;;
62102;SDS011;48077;48.104;11.702;2023-03-31T08:12:39;9.77;;;4.40;;
62102;SDS011;48077;48.104;11.702;2023-03-31T08:15:03;9.40;;;4.70;;
62102;SDS011;48077;48.104;11.702;2023-03-31T08:17:26;10.43;;;5.60;;
62102;SDS011;48077;48.104;11.702;2023-03-31T08:19:50;10.68;;;5.47;;
62102;SDS011;48077;48.104;11.702;2023-03-31T08:22:14;10.55;;;5.95;;
62102;SDS011;48077;48.104;11.702;2023-03-31T08:24:37;12.63;;;5.40;;
62102;SDS011;48077;48.104;11.702;2023-03-31T08:27:00;11.27;;;5.00;;
62102;SDS011;48077;48.104;11.702;2023-03-31T08:29:24;12.20;;;5.63;;
62102;SDS011;48077;48.104;11.702;2023-03-31T08:31:47;9.90;;;5.38;;
62102;SDS011;48077;48.104;11.702;2023-03-31T08:34:13;12.38;;;5.22;;
62102;SDS011;48077;48.104;11.702;2023-03-31T08:36:37;8.80;;;4.72;;
62102;SDS011;48077;48.104;11.702;2023-03-31T08:39:00;12.30;;;5.65;;
62102;SDS011;48077;48.104;11.702;2023-03-31T08:43:59;11.55;;;5.30;;
62102;SDS011;48077;48.104;11.702;2023-03-31T08:46:29;9.25;;;4.78;;
62102;SDS011;48077;48.104;11.702;2023-03-31T08:48:57;8.63;;;4.82;;
62102;SDS011;48077;48.104;11.702;2023-03-31T08:51:26;7.68;;;4.28;;
62102;SDS011;48077;48.104;11.702;2023-03-31T08:53:56;9.25;;;4.45;;
62102;SDS011;48077;48.104;11.702;2023-03-31T08:56:25;10.50;;;6.05;;
62102;SDS011;48077;48.104;11.702;2023-03-31T08:58:49;11.18;;;5.55;;
62102;SDS011;48077;48.104;11.702;2023-03-31T09:01:35;10.10;;;5.30;;
62102;SDS011;48077;48.104;11.702;2023-03-31T09:18:33;8.02;;;4.57;;
62102;SDS011;48077;48.104;11.702;2023-03-31T09:21:19;9.57;;;4.80;;
62102;SDS011;48077;48.104;11.702;2023-03-31T09:26:35;7.32;;;4.50;;
62102;SDS011;48077;48.104;11.702;2023-03-31T09:29:03;8.65;;;4.00;;
62102;SDS011;48077;48.104;11.702;2023-03-31T09:31:36;8.40;;;4.18;;
62102;SDS011;48077;48.104;11.702;2023-03-31T09:34:04;8.77;;;4.40;;
62102;SDS011;48077;48.104;11.702;2023-03-31T09:36:43;9.40;;;4.10;;
62102;SDS011;48077;48.104;11.702;2023-03-31T09:39:10;11.13;;;4.95;;
62102;SDS011;48077;48.104;11.702;2023-03-31T09:41:36;12.63;;;4.43;;
62102;SDS011;48077;48.104;11.702;2023-03-31T09:44:04;9.05;;;4.18;;
62102;SDS011;48077;48.104;11.702;2023-03-31T09:46:43;8.15;;;3.92;;
62102;SDS011;48077;48.104;11.702;2023-03-31T09:49:09;11.70;;;4.30;;
62102;SDS011;48077;48.104;11.702;2023-03-31T09:51:37;10.52;;;3.75;;
62102;SDS011;48077;48.104;11.702;2023-03-31T09:54:09;6.00;;;3.75;;
62102;SDS011;48077;48.104;11.702;2023-03-31T09:59:04;8.90;;;3.47;;
62102;SDS011;48077;48.104;11.702;2023-03-31T10:01:27;7.40;;;3.47;;
62102;SDS011;48077;48.104;11.702;2023-03-31T10:03:52;9.55;;;3.65;;
62102;SDS011;48077;48.104;11.702;2023-03-31T10:06:16;6.38;;;3.40;;
62102;SDS011;48077;48.104;11.702;2023-03-31T10:09:16;10.27;;;3.38;;
62102;SDS011;48077;48.104;11.702;2023-03-31T10:11:32;7.65;;;3.50;;
62102;SDS011;48077;48.104;11.702;2023-03-31T10:14:14;5.35;;;2.97;;
62102;SDS011;48077;48.104;11.702;2023-03-31T10:16:51;6.50;;;3.38;;
62102;SDS011;48077;48.104;11.702;2023-03-31T10:19:31;6.78;;;4.50;;
62102;SDS011;48077;48.104;11.702;2023-03-31T10:21:57;6.50;;;3.78;;
62102;SDS011;48077;48.104;11.702;2023-03-31T10:24:23;7.78;;;3.63;;
62102;SDS011;48077;48.104;11.702;2023-03-31T10:26:47;6.63;;;3.83;;
62102;SDS011;48077;48.104;11.702;2023-03-31T10:29:11;8.90;;;5.82;;
62102;SDS011;48077;48.104;11.702;2023-03-31T10:31:38;10.95;;;5.80;;
62102;SDS011;48077;48.104;11.702;2023-03-31T10:34:05;7.30;;;4.72;;
62102;SDS011;48077;48.104;11.702;2023-03-31T10:36:31;5.72;;;3.55;;
62102;SDS011;48077;48.104;11.702;2023-03-31T10:38:57;8.07;;;4.40;;
62102;SDS011;48077;48.104;11.702;2023-03-31T10:41:24;6.57;;;3.60;;
62102;SDS011;48077;48.104;11.702;2023-03-31T10:43:51;5.72;;;3.50;;
62102;SDS011;48077;48.104;11.702;2023-03-31T10:46:17;5.13;;;3.45;;
62102;SDS011;48077;48.104;11.702;2023-03-31T10:48:41;3.72;;;2.65;;
62102;SDS011;48077;48.104;11.702;2023-03-31T10:53:39;4.15;;;2.92;;
62102;SDS011;48077;48.104;11.702;2023-03-31T10:56:16;6.38;;;3.75;;
62102;SDS011;48077;48.104;11.702;2023-03-31T10:58:51;8.18;;;3.35;;
62102;SDS011;48077;48.104;11.702;2023-03-31T11:09:09;6.10;;;3.25;;
62102;SDS011;48077;48.104;11.702;2023-03-31T11:11:50;5.10;;;3.00;;
62102;SDS011;48077;48.104;11.702;2023-03-31T11:17:03;5.07;;;3.08;;
62102;SDS011;48077;48.104;11.702;2023-03-31T11:19:59;8.93;;;4.03;;
62102;SDS011;48077;48.104;11.702;2023-03-31T11:22:41;6.80;;;3.30;;
62102;SDS011;48077;48.104;11.702;2023-03-31T11:33:34;7.70;;;3.72;;
62102;SDS011;48077;48.104;11.702;2023-03-31T11:36:15;8.82;;;3.88;;
62102;SDS011;48077;48.104;11.702;2023-03-31T11:39:17;6.00;;;2.78;;
62102;SDS011;48077;48.104;11.702;2023-03-31T11:42:18;8.57;;;2.92;;
62102;SDS011;48077;48.104;11.702;2023-03-31T11:44:49;5.00;;;1.75;;
62102;SDS011;48077;48.104;11.702;2023-03-31T11:47:18;4.65;;;1.90;;
62102;SDS011;48077;48.104;11.702;2023-03-31T11:49:49;3.15;;;1.67;;
62102;SDS011;48077;48.104;11.702;2023-03-31T11:52:17;2.83;;;1.95;;
62102;SDS011;48077;48.104;11.702;2023-03-31T11:54:54;2.80;;;1.38;;
62102;SDS011;48077;48.104;11.702;2023-03-31T11:57:21;4.55;;;1.77;;
62102;SDS011;48077;48.104;11.702;2023-03-31T12:00:04;3.37;;;1.40;;
62102;SDS011;48077;48.104;11.702;2023-03-31T12:05:17;2.47;;;1.20;;
62102;SDS011;48077;48.104;11.702;2023-03-31T12:07:46;3.08;;;1.48;;
62102;SDS011;48077;48.104;11.702;2023-03-31T12:10:21;4.05;;;2.08;;
62102;SDS011;48077;48.104;11.702;2023-03-31T12:15:51;5.00;;;1.63;;
62102;SDS011;48077;48.104;11.702;2023-03-31T12:18:23;4.55;;;2.30;;
62102;SDS011;48077;48.104;11.702;2023-03-31T12:20:52;3.40;;;1.50;;
62102;SDS011;48077;48.104;11.702;2023-03-31T12:23:20;3.47;;;1.38;;
62102;SDS011;48077;48.104;11.702;2023-03-31T12:28:55;3.63;;;1.75;;
62102;SDS011;48077;48.104;11.702;2023-03-31T12:31:22;3.97;;;1.50;;
62102;SDS011;48077;48.104;11.702;2023-03-31T12:33:57;3.08;;;1.42;;
62102;SDS011;48077;48.104;11.702;2023-03-31T12:41:46;4.25;;;2.00;;
62102;SDS011;48077;48.104;11.702;2023-03-31T12:50:08;3.03;;;1.50;;
62102;SDS011;48077;48.104;11.702;2023-03-31T12:52:55;5.97;;;2.20;;
62102;SDS011;48077;48.104;11.702;2023-03-31T12:55:37;3.53;;;1.85;;
62102;SDS011;48077;48.104;11.702;2023-03-31T13:03:39;5.32;;;2.28;;
62102;SDS011;48077;48.104;11.702;2023-03-31T13:06:05;6.00;;;2.70;;
62102;SDS011;48077;48.104;11.702;2023-03-31T13:11:16;9.80;;;5.45;;
62102;SDS011;48077;48.104;11.702;2023-03-31T13:13:52;5.55;;;2.08;;
62102;SDS011;48077;48.104;11.702;2023-03-31T13:16:21;4.60;;;1.92;;
62102;SDS011;48077;48.104;11.702;2023-03-31T13:18:50;3.03;;;1.30;;
62102;SDS011;48077;48.104;11.702;2023-03-31T13:21:15;4.60;;;1.60;;
62102;SDS011;48077;48.104;11.702;2023-03-31T13:23:38;9.40;;;1.65;;
62102;SDS011;48077;48.104;11.702;2023-03-31T13:26:32;4.28;;;1.58;;
62102;SDS011;48077;48.104;11.702;2023-03-31T13:34:24;3.33;;;1.23;;
62102;SDS011;48077;48.104;11.702;2023-03-31T13:36:56;5.47;;;1.52;;
62102;SDS011;48077;48.104;11.702;2023-03-31T13:51:05;7.20;;;1.63;;
62102;SDS011;48077;48.104;11.702;2023-03-31T13:59:31;3.90;;;1.30;;
62102;SDS011;48077;48.104;11.702;2023-03-31T14:02:22;8.45;;;2.97;;
62102;SDS011;48077;48.104;11.702;2023-03-31T14:07:54;5.10;;;1.48;;
62102;SDS011;48077;48.104;11.702;2023-03-31T14:10:41;3.72;;;1.45;;
62102;SDS011;48077;48.104;11.702;2023-03-31T14:15:36;3.92;;;1.52;;
62102;SDS011;48077;48.104;11.702;2023-03-31T14:18:04;4.47;;;1.90;;
62102;SDS011;48077;48.104;11.702;2023-03-31T14:26:05;5.25;;;1.98;;
62102;SDS011;48077;48.104;11.702;2023-03-31T14:28:48;6.03;;;2.47;;
62102;SDS011;48077;48.104;11.702;2023-03-31T14:34:05;8.07;;;2.35;;
62102;SDS011;48077;48.104;11.702;2023-03-31T14:36:44;3.88;;;2.63;;
62102;SDS011;48077;48.104;11.702;2023-03-31T14:39:20;6.15;;;2.55;;
62102;SDS011;48077;48.104;11.702;2023-03-31T14:41:49;8.05;;;2.45;;
62102;SDS011;48077;48.104;11.702;2023-03-31T14:44:15;5.07;;;1.80;;
62102;SDS011;48077;48.104;11.702;2023-03-31T14:46:40;5.13;;;1.77;;
62102;SDS011;48077;48.104;11.702;2023-03-31T14:49:19;5.95;;;1.85;;
62102;SDS011;48077;48.104;11.702;2023-03-31T14:51:47;5.75;;;1.58;;
62102;SDS011;48077;48.104;11.702;2023-03-31T14:54:17;4.05;;;1.23;;
62102;SDS011;48077;48.104;11.702;2023-03-31T14:56:48;3.25;;;1.10;;
62102;SDS011;48077;48.104;11.702;2023-03-31T14:59:19;6.38;;;1.50;;
62102;SDS011;48077;48.104;11.702;2023-03-31T15:01:46;3.83;;;1.00;;
62102;SDS011;48077;48.104;11.702;2023-03-31T15:04:12;4.40;;;1.27;;
62102;SDS011;48077;48.104;11.702;2023-03-31T15:06:39;4.97;;;1.75;;
62102;SDS011;48077;48.104;11.702;2023-03-31T15:09:08;4.33;;;1.30;;
62102;SDS011;48077;48.104;11.702;2023-03-31T15:11:53;4.15;;;1.08;;
62102;SDS011;48077;48.104;11.702;2023-03-31T15:14:29;2.10;;;0.75;;
62102;SDS011;48077;48.104;11.702;2023-03-31T15:16:56;2.42;;;0.80;;
62102;SDS011;48077;48.104;11.702;2023-03-31T15:19:20;3.35;;;1.10;;
62102;SDS011;48077;48.104;11.702;2023-03-31T15:22:00;4.47;;;1.02;;
62102;SDS011;48077;48.104;11.702;2023-03-31T15:24:28;2.97;;;0.93;;
62102;SDS011;48077;48.104;11.702;2023-03-31T15:26:59;3.85;;;1.27;;
62102;SDS011;48077;48.104;11.702;2023-03-31T15:29:51;2.75;;;0.95;;
62102;SDS011;48077;48.104;11.702;2023-03-31T15:32:24;3.80;;;1.25;;
62102;SDS011;48077;48.104;11.702;2023-03-31T15:34:53;3.58;;;1.15;;
62102;SDS011;48077;48.104;11.702;2023-03-31T15:37:21;4.53;;;1.27;;
62102;SDS011;48077;48.104;11.702;2023-03-31T15:39:49;3.90;;;1.40;;
62102;SDS011;48077;48.104;11.702;2023-03-31T15:42:13;4.88;;;1.55;;
62102;SDS011;48077;48.104;11.702;2023-03-31T15:47:50;4.40;;;1.23;;
62102;SDS011;48077;48.104;11.702;2023-03-31T15:50:14;3.83;;;0.90;;
62102;SDS011;48077;48.104;11.702;2023-03-31T15:52:52;4.00;;;1.13;;
62102;SDS011;48077;48.104;11.702;2023-03-31T15:57:51;8.10;;;2.15;;
62102;SDS011;48077;48.104;11.702;2023-03-31T16:06:08;7.85;;;2.10;;
62102;SDS011;48077;48.104;11.702;2023-03-31T16:08:42;7.43;;;2.38;;
62102;SDS011;48077;48.104;11.702;2023-03-31T16:11:13;6.07;;;2.03;;
62102;SDS011;48077;48.104;11.702;2023-03-31T16:13:42;5.72;;;2.13;;
62102;SDS011;48077;48.104;11.702;2023-03-31T16:16:10;5.72;;;1.48;;
62102;SDS011;48077;48.104;11.702;2023-03-31T16:18:38;8.38;;;2.17;;
62102;SDS011;48077;48.104;11.702;2023-03-31T16:21:05;6.07;;;1.67;;
62102;SDS011;48077;48.104;11.702;2023-03-31T16:23:31;5.38;;;1.63;;
62102;SDS011;48077;48.104;11.702;2023-03-31T16:25:57;5.65;;;1.90;;
62102;SDS011;48077;48.104;11.702;2023-03-31T16:28:22;5.35;;;1.60;;
62102;SDS011;48077;48.104;11.702;2023-03-31T16:30:49;5.15;;;2.00;;
62102;SDS011;48077;48.104;11.702;2023-03-31T16:33:14;8.40;;;2.65;;
62102;SDS011;48077;48.104;11.702;2023-03-31T16:36:01;5.07;;;1.67;;
62102;SDS011;48077;48.104;11.702;2023-03-31T16:38:27;4.45;;;1.67;;
62102;SDS011;48077;48.104;11.702;2023-03-31T16:40:52;4.68;;;1.55;;
62102;SDS011;48077;48.104;11.702;2023-03-31T16:43:18;4.55;;;1.67;;
62102;SDS011;48077;48.104;11.702;2023-03-31T16:45:47;5.40;;;1.67;;
62102;SDS011;48077;48.104;11.702;2023-03-31T16:48:12;8.13;;;2.20;;
62102;SDS011;48077;48.104;11.702;2023-03-31T16:50:39;6.45;;;1.80;;
62102;SDS011;48077;48.104;11.702;2023-03-31T16:53:03;4.28;;;1.65;;
62102;SDS011;48077;48.104;11.702;2023-03-31T16:55:26;3.83;;;1.70;;
62102;SDS011;48077;48.104;11.702;2023-03-31T16:57:51;6.15;;;1.50;;
62102;SDS011;48077;48.104;11.702;2023-03-31T17:00:15;6.03;;;2.03;;
62102;SDS011;48077;48.104;11.702;2023-03-31T17:02:41;5.20;;;2.00;;
62102;SDS011;48077;48.104;11.702;2023-03-31T17:05:04;5.25;;;2.28;;
62102;SDS011;48077;48.104;11.702;2023-03-31T17:07:28;3.03;;;1.05;;
62102;SDS011;48077;48.104;11.702;2023-03-31T17:09:52;2.97;;;1.13;;
62102;SDS011;48077;48.104;11.702;2023-03-31T17:12:18;5.97;;;2.08;;
62102;SDS011;48077;48.104;11.702;2023-03-31T17:14:41;4.63;;;1.23;;
62102;SDS011;48077;48.104;11.702;2023-03-31T17:17:04;7.15;;;1.42;;
62102;SDS011;48077;48.104;11.702;2023-03-31T17:19:28;4.90;;;1.40;;
62102;SDS011;48077;48.104;11.702;2023-03-31T17:21:51;5.38;;;1.77;;
62102;SDS011;48077;48.104;11.702;2023-03-31T17:24:14;5.25;;;1.23;;
62102;SDS011;48077;48.104;11.702;2023-03-31T17:26:40;4.30;;;1.30;;
62102;SDS011;48077;48.104;11.702;2023-03-31T17:29:04;4.38;;;1.38;;